sensor_id;sensor_type;location;lat;lon;timestamp;P1;durP1;ratioP1;P2;durP2;ratioP2
57810;SDS011;43640;47.550;7.590;2022-09-29T00:00:59;3.10;;;2.60;;
57810;SDS011;43640;47.550;7.590;2022-09-29T00:03:02;4.28;;;2.88;;
57810;SDS011;43640;47.550;7.590;2022-09-29T00:05:04;3.58;;;2.60;;
57810;SDS011;43640;47.550;7.590;2022-09-29T00:07:05;3.95;;;2.72;;
57810;SDS011;43640;47.550;7.590;2022-09-29T00:09:06;4.70;;;3.00;;
57810;SDS011;43640;47.550;7.590;2022-09-29T00:11:17;5.35;;;2.78;;
57810;SDS011;43640;47.550;7.590;2022-09-29T00:13:19;4.50;;;2.80;;
57810;SDS011;43640;47.550;7.590;2022-09-29T00:15:20;3.30;;;2.78;;
57810;SDS011;43640;47.550;7.590;2022-09-29T00:17:21;5.63;;;3.05;;
57810;SDS011;43640;47.550;7.590;2022-09-29T00:19:23;3.92;;;2.83;;
57810;SDS011;43640;47.550;7.590;2022-09-29T00:21:25;3.97;;;2.50;;
57810;SDS011;43640;47.550;7.590;2022-09-29T00:23:27;3.88;;;2.55;;
57810;SDS011;43640;47.550;7.590;2022-09-29T00:25:29;6.20;;;2.33;;
57810;SDS011;43640;47.550;7.590;2022-09-29T00:27:31;3.53;;;2.10;;
57810;SDS011;43640;47.550;7.590;2022-09-29T00:29:32;1.90;;;1.70;;
57810;SDS011;43640;47.550;7.590;2022-09-29T00:31:34;3.20;;;1.67;;
57810;SDS011;43640;47.550;7.590;2022-09-29T00:33:35;5.30;;;1.90;;
57810;SDS011;43640;47.550;7.590;2022-09-29T00:35:37;2.40;;;1.63;;
57810;SDS011;43640;47.550;7.590;2022-09-29T00:37:38;2.65;;;1.65;;
57810;SDS011;43640;47.550;7.590;2022-09-29T00:39:40;3.15;;;1.80;;
57810;SDS011;43640;47.550;7.590;2022-09-29T00:41:41;3.47;;;1.90;;
57810;SDS011;43640;47.550;7.590;2022-09-29T00:43:53;3.25;;;1.95;;
57810;SDS011;43640;47.550;7.590;2022-09-29T00:45:55;3.65;;;1.98;;
57810;SDS011;43640;47.550;7.590;2022-09-29T00:48:01;2.10;;;1.80;;
57810;SDS011;43640;47.550;7.590;2022-09-29T00:50:08;3.53;;;1.85;;
57810;SDS011;43640;47.550;7.590;2022-09-29T00:54:16;2.92;;;1.50;;
57810;SDS011;43640;47.550;7.590;2022-09-29T00:56:18;3.15;;;1.67;;
57810;SDS011;43640;47.550;7.590;2022-09-29T01:00:24;3.40;;;1.70;;
57810;SDS011;43640;47.550;7.590;2022-09-29T01:02:26;2.38;;;1.58;;
57810;SDS011;43640;47.550;7.590;2022-09-29T01:04:27;2.90;;;1.67;;
57810;SDS011;43640;47.550;7.590;2022-09-29T01:06:34;3.13;;;1.88;;
57810;SDS011;43640;47.550;7.590;2022-09-29T01:08:38;4.72;;;1.67;;
57810;SDS011;43640;47.550;7.590;2022-09-29T01:10:41;4.55;;;1.85;;
57810;SDS011;43640;47.550;7.590;2022-09-29T01:12:44;3.90;;;1.70;;
57810;SDS011;43640;47.550;7.590;2022-09-29T01:14:45;4.15;;;1.80;;
57810;SDS011;43640;47.550;7.590;2022-09-29T01:16:47;3.90;;;1.90;;
57810;SDS011;43640;47.550;7.590;2022-09-29T01:18:49;2.83;;;1.90;;
57810;SDS011;43640;47.550;7.590;2022-09-29T01:33:38;3.92;;;2.90;;
57810;SDS011;43640;47.550;7.590;2022-09-29T01:37:56;5.80;;;3.40;;
57810;SDS011;43640;47.550;7.590;2022-09-29T01:42:43;3.70;;;3.00;;
57810;SDS011;43640;47.550;7.590;2022-09-29T01:44:51;4.43;;;2.78;;
57810;SDS011;43640;47.550;7.590;2022-09-29T01:46:57;5.50;;;2.72;;
57810;SDS011;43640;47.550;7.590;2022-09-29T01:48:59;4.82;;;2.55;;
57810;SDS011;43640;47.550;7.590;2022-09-29T01:51:04;3.35;;;2.20;;
57810;SDS011;43640;47.550;7.590;2022-09-29T01:53:08;3.70;;;2.05;;
57810;SDS011;43640;47.550;7.590;2022-09-29T01:55:11;4.22;;;2.25;;
57810;SDS011;43640;47.550;7.590;2022-09-29T01:57:14;3.67;;;2.60;;
57810;SDS011;43640;47.550;7.590;2022-09-29T01:59:19;3.00;;;2.30;;
57810;SDS011;43640;47.550;7.590;2022-09-29T02:01:24;3.45;;;2.30;;
57810;SDS011;43640;47.550;7.590;2022-09-29T02:03:47;4.45;;;2.20;;
57810;SDS011;43640;47.550;7.590;2022-09-29T02:05:51;3.17;;;2.20;;
57810;SDS011;43640;47.550;7.590;2022-09-29T02:07:53;6.32;;;2.50;;
57810;SDS011;43640;47.550;7.590;2022-09-29T02:09:58;3.15;;;2.33;;
57810;SDS011;43640;47.550;7.590;2022-09-29T02:12:01;4.68;;;2.20;;
57810;SDS011;43640;47.550;7.590;2022-09-29T02:14:11;3.83;;;2.25;;
57810;SDS011;43640;47.550;7.590;2022-09-29T02:16:15;2.37;;;2.17;;
57810;SDS011;43640;47.550;7.590;2022-09-29T02:18:19;4.32;;;2.38;;
57810;SDS011;43640;47.550;7.590;2022-09-29T02:20:21;3.50;;;2.40;;
57810;SDS011;43640;47.550;7.590;2022-09-29T02:22:23;3.63;;;2.58;;
57810;SDS011;43640;47.550;7.590;2022-09-29T02:24:24;5.95;;;2.95;;
57810;SDS011;43640;47.550;7.590;2022-09-29T02:26:27;4.43;;;3.05;;
57810;SDS011;43640;47.550;7.590;2022-09-29T02:28:29;4.72;;;2.78;;
57810;SDS011;43640;47.550;7.590;2022-09-29T02:30:31;4.10;;;2.75;;
57810;SDS011;43640;47.550;7.590;2022-09-29T02:32:33;4.43;;;2.80;;
57810;SDS011;43640;47.550;7.590;2022-09-29T02:34:39;3.75;;;2.42;;
57810;SDS011;43640;47.550;7.590;2022-09-29T02:38:47;5.18;;;2.20;;
57810;SDS011;43640;47.550;7.590;2022-09-29T02:41:04;3.53;;;1.83;;
57810;SDS011;43640;47.550;7.590;2022-09-29T02:47:23;2.63;;;1.80;;
57810;SDS011;43640;47.550;7.590;2022-09-29T02:49:36;3.33;;;1.80;;
57810;SDS011;43640;47.550;7.590;2022-09-29T02:51:45;3.47;;;1.80;;
57810;SDS011;43640;47.550;7.590;2022-09-29T02:53:57;3.35;;;1.90;;
57810;SDS011;43640;47.550;7.590;2022-09-29T02:58:20;3.33;;;1.90;;
57810;SDS011;43640;47.550;7.590;2022-09-29T03:00:26;2.45;;;1.80;;
57810;SDS011;43640;47.550;7.590;2022-09-29T03:02:28;3.92;;;1.70;;
57810;SDS011;43640;47.550;7.590;2022-09-29T03:04:29;4.43;;;1.77;;
57810;SDS011;43640;47.550;7.590;2022-09-29T03:06:30;2.70;;;1.65;;
57810;SDS011;43640;47.550;7.590;2022-09-29T03:08:32;2.58;;;1.80;;
57810;SDS011;43640;47.550;7.590;2022-09-29T03:10:33;2.58;;;1.70;;
57810;SDS011;43640;47.550;7.590;2022-09-29T03:12:35;3.13;;;1.73;;
57810;SDS011;43640;47.550;7.590;2022-09-29T03:14:37;2.95;;;1.75;;
57810;SDS011;43640;47.550;7.590;2022-09-29T03:16:38;2.45;;;1.92;;
57810;SDS011;43640;47.550;7.590;2022-09-29T03:18:39;3.50;;;1.83;;
57810;SDS011;43640;47.550;7.590;2022-09-29T03:20:41;2.25;;;1.75;;
57810;SDS011;43640;47.550;7.590;2022-09-29T03:22:42;4.43;;;1.88;;
57810;SDS011;43640;47.550;7.590;2022-09-29T03:24:44;3.20;;;2.03;;
57810;SDS011;43640;47.550;7.590;2022-09-29T03:26:45;3.13;;;1.73;;
57810;SDS011;43640;47.550;7.590;2022-09-29T03:28:46;4.93;;;2.03;;
57810;SDS011;43640;47.550;7.590;2022-09-29T03:30:48;2.83;;;1.70;;
57810;SDS011;43640;47.550;7.590;2022-09-29T03:32:49;4.10;;;1.95;;
57810;SDS011;43640;47.550;7.590;2022-09-29T03:34:51;3.97;;;1.90;;
57810;SDS011;43640;47.550;7.590;2022-09-29T03:36:52;4.30;;;1.88;;
57810;SDS011;43640;47.550;7.590;2022-09-29T03:38:54;3.45;;;1.70;;
57810;SDS011;43640;47.550;7.590;2022-09-29T03:40:55;3.25;;;1.70;;
57810;SDS011;43640;47.550;7.590;2022-09-29T03:42:56;3.30;;;2.10;;
57810;SDS011;43640;47.550;7.590;2022-09-29T03:44:58;3.25;;;2.10;;
57810;SDS011;43640;47.550;7.590;2022-09-29T03:46:59;3.05;;;1.90;;
57810;SDS011;43640;47.550;7.590;2022-09-29T03:49:00;4.03;;;2.30;;
57810;SDS011;43640;47.550;7.590;2022-09-29T03:51:02;3.10;;;2.15;;
57810;SDS011;43640;47.550;7.590;2022-09-29T03:53:04;3.28;;;2.10;;
57810;SDS011;43640;47.550;7.590;2022-09-29T03:55:05;3.45;;;2.30;;
57810;SDS011;43640;47.550;7.590;2022-09-29T03:57:07;4.47;;;2.47;;
57810;SDS011;43640;47.550;7.590;2022-09-29T03:59:08;3.13;;;2.42;;
57810;SDS011;43640;47.550;7.590;2022-09-29T04:01:12;8.25;;;2.95;;
57810;SDS011;43640;47.550;7.590;2022-09-29T04:03:13;4.72;;;2.88;;
57810;SDS011;43640;47.550;7.590;2022-09-29T04:05:15;3.95;;;2.80;;
57810;SDS011;43640;47.550;7.590;2022-09-29T04:07:18;4.60;;;2.30;;
57810;SDS011;43640;47.550;7.590;2022-09-29T04:09:19;3.67;;;3.10;;
57810;SDS011;43640;47.550;7.590;2022-09-29T04:11:21;4.72;;;2.70;;
57810;SDS011;43640;47.550;7.590;2022-09-29T04:13:22;5.25;;;2.85;;
57810;SDS011;43640;47.550;7.590;2022-09-29T04:15:23;3.78;;;2.63;;
57810;SDS011;43640;47.550;7.590;2022-09-29T04:17:25;3.47;;;2.95;;
57810;SDS011;43640;47.550;7.590;2022-09-29T04:19:26;5.65;;;3.22;;
57810;SDS011;43640;47.550;7.590;2022-09-29T04:21:27;6.05;;;4.20;;
57810;SDS011;43640;47.550;7.590;2022-09-29T04:23:29;5.38;;;4.10;;
57810;SDS011;43640;47.550;7.590;2022-09-29T04:25:31;5.20;;;3.88;;
57810;SDS011;43640;47.550;7.590;2022-09-29T04:27:33;4.28;;;3.58;;
57810;SDS011;43640;47.550;7.590;2022-09-29T04:29:34;4.90;;;3.80;;
57810;SDS011;43640;47.550;7.590;2022-09-29T04:31:35;4.82;;;3.95;;
57810;SDS011;43640;47.550;7.590;2022-09-29T04:33:37;6.07;;;3.92;;
57810;SDS011;43640;47.550;7.590;2022-09-29T04:35:39;6.28;;;3.97;;
57810;SDS011;43640;47.550;7.590;2022-09-29T04:37:41;5.47;;;3.95;;
57810;SDS011;43640;47.550;7.590;2022-09-29T04:39:42;5.10;;;3.95;;
57810;SDS011;43640;47.550;7.590;2022-09-29T04:41:43;5.93;;;4.15;;
57810;SDS011;43640;47.550;7.590;2022-09-29T04:43:46;4.53;;;3.75;;
57810;SDS011;43640;47.550;7.590;2022-09-29T04:45:47;5.00;;;4.13;;
57810;SDS011;43640;47.550;7.590;2022-09-29T04:47:48;5.45;;;4.03;;
57810;SDS011;43640;47.550;7.590;2022-09-29T04:49:50;4.38;;;3.70;;
57810;SDS011;43640;47.550;7.590;2022-09-29T04:51:51;4.70;;;3.38;;
57810;SDS011;43640;47.550;7.590;2022-09-29T04:53:53;3.88;;;3.13;;
57810;SDS011;43640;47.550;7.590;2022-09-29T04:55:54;5.95;;;3.25;;
57810;SDS011;43640;47.550;7.590;2022-09-29T04:57:55;3.95;;;3.08;;
57810;SDS011;43640;47.550;7.590;2022-09-29T04:59:57;3.38;;;3.05;;
57810;SDS011;43640;47.550;7.590;2022-09-29T05:01:58;3.55;;;2.90;;
57810;SDS011;43640;47.550;7.590;2022-09-29T05:04:00;3.75;;;3.28;;
57810;SDS011;43640;47.550;7.590;2022-09-29T05:06:01;3.40;;;3.10;;
57810;SDS011;43640;47.550;7.590;2022-09-29T05:08:03;4.15;;;3.33;;
57810;SDS011;43640;47.550;7.590;2022-09-29T05:10:05;4.40;;;3.45;;
57810;SDS011;43640;47.550;7.590;2022-09-29T05:12:06;4.43;;;3.50;;
57810;SDS011;43640;47.550;7.590;2022-09-29T05:14:09;4.45;;;3.67;;
57810;SDS011;43640;47.550;7.590;2022-09-29T05:16:10;4.57;;;3.60;;
57810;SDS011;43640;47.550;7.590;2022-09-29T05:18:12;4.13;;;3.63;;
57810;SDS011;43640;47.550;7.590;2022-09-29T05:20:13;4.85;;;3.85;;
57810;SDS011;43640;47.550;7.590;2022-09-29T05:22:15;4.63;;;3.88;;
57810;SDS011;43640;47.550;7.590;2022-09-29T05:24:16;5.57;;;3.97;;
57810;SDS011;43640;47.550;7.590;2022-09-29T05:26:17;4.20;;;3.80;;
57810;SDS011;43640;47.550;7.590;2022-09-29T05:28:19;5.10;;;4.40;;
57810;SDS011;43640;47.550;7.590;2022-09-29T05:30:20;7.22;;;4.32;;
57810;SDS011;43640;47.550;7.590;2022-09-29T05:32:22;5.93;;;4.43;;
57810;SDS011;43640;47.550;7.590;2022-09-29T05:34:23;6.57;;;4.38;;
57810;SDS011;43640;47.550;7.590;2022-09-29T05:36:24;6.88;;;4.47;;
57810;SDS011;43640;47.550;7.590;2022-09-29T05:38:26;5.80;;;4.72;;
57810;SDS011;43640;47.550;7.590;2022-09-29T05:40:28;5.72;;;4.10;;
57810;SDS011;43640;47.550;7.590;2022-09-29T05:42:30;8.10;;;4.40;;
57810;SDS011;43640;47.550;7.590;2022-09-29T05:44:31;5.05;;;4.43;;
57810;SDS011;43640;47.550;7.590;2022-09-29T05:46:34;5.50;;;4.53;;
57810;SDS011;43640;47.550;7.590;2022-09-29T05:48:35;6.65;;;4.60;;
57810;SDS011;43640;47.550;7.590;2022-09-29T05:50:37;8.98;;;5.07;;
57810;SDS011;43640;47.550;7.590;2022-09-29T05:52:41;7.18;;;5.18;;
57810;SDS011;43640;47.550;7.590;2022-09-29T05:54:43;4.80;;;4.25;;
57810;SDS011;43640;47.550;7.590;2022-09-29T05:56:44;5.20;;;4.43;;
57810;SDS011;43640;47.550;7.590;2022-09-29T05:58:45;6.43;;;4.70;;
57810;SDS011;43640;47.550;7.590;2022-09-29T06:00:47;6.47;;;4.70;;
57810;SDS011;43640;47.550;7.590;2022-09-29T06:02:48;5.78;;;4.63;;
57810;SDS011;43640;47.550;7.590;2022-09-29T06:04:50;5.40;;;4.65;;
57810;SDS011;43640;47.550;7.590;2022-09-29T06:06:51;7.90;;;4.65;;
57810;SDS011;43640;47.550;7.590;2022-09-29T06:08:53;6.22;;;4.68;;
57810;SDS011;43640;47.550;7.590;2022-09-29T06:11:00;5.85;;;4.55;;
57810;SDS011;43640;47.550;7.590;2022-09-29T06:13:02;5.45;;;4.55;;
57810;SDS011;43640;47.550;7.590;2022-09-29T06:15:04;7.28;;;4.43;;
57810;SDS011;43640;47.550;7.590;2022-09-29T06:17:05;6.20;;;4.40;;
57810;SDS011;43640;47.550;7.590;2022-09-29T06:19:06;6.93;;;4.80;;
57810;SDS011;43640;47.550;7.590;2022-09-29T06:21:09;6.53;;;4.90;;
57810;SDS011;43640;47.550;7.590;2022-09-29T06:23:10;5.93;;;5.00;;
57810;SDS011;43640;47.550;7.590;2022-09-29T06:25:12;5.70;;;4.60;;
57810;SDS011;43640;47.550;7.590;2022-09-29T06:27:13;6.28;;;4.95;;
57810;SDS011;43640;47.550;7.590;2022-09-29T06:29:15;8.18;;;5.10;;
57810;SDS011;43640;47.550;7.590;2022-09-29T06:31:17;6.60;;;5.18;;
57810;SDS011;43640;47.550;7.590;2022-09-29T06:33:19;6.25;;;5.15;;
57810;SDS011;43640;47.550;7.590;2022-09-29T06:35:20;7.68;;;6.38;;
57810;SDS011;43640;47.550;7.590;2022-09-29T06:37:40;6.10;;;4.93;;
57810;SDS011;43640;47.550;7.590;2022-09-29T06:39:44;6.95;;;5.35;;
57810;SDS011;43640;47.550;7.590;2022-09-29T06:41:45;7.93;;;5.22;;
57810;SDS011;43640;47.550;7.590;2022-09-29T06:43:52;7.75;;;5.10;;
57810;SDS011;43640;47.550;7.590;2022-09-29T06:45:53;6.95;;;4.47;;
57810;SDS011;43640;47.550;7.590;2022-09-29T06:48:00;9.07;;;6.72;;
57810;SDS011;43640;47.550;7.590;2022-09-29T06:50:08;6.28;;;5.00;;
57810;SDS011;43640;47.550;7.590;2022-09-29T06:52:18;6.50;;;4.95;;
57810;SDS011;43640;47.550;7.590;2022-09-29T06:54:22;9.05;;;5.47;;
57810;SDS011;43640;47.550;7.590;2022-09-29T06:56:25;9.20;;;6.47;;
57810;SDS011;43640;47.550;7.590;2022-09-29T06:58:26;7.80;;;5.70;;
57810;SDS011;43640;47.550;7.590;2022-09-29T07:00:27;8.65;;;5.90;;
57810;SDS011;43640;47.550;7.590;2022-09-29T07:02:29;6.22;;;4.75;;
57810;SDS011;43640;47.550;7.590;2022-09-29T07:04:30;7.32;;;5.60;;
57810;SDS011;43640;47.550;7.590;2022-09-29T07:06:31;5.63;;;4.95;;
57810;SDS011;43640;47.550;7.590;2022-09-29T07:08:33;6.20;;;5.13;;
57810;SDS011;43640;47.550;7.590;2022-09-29T07:10:39;5.65;;;4.53;;
57810;SDS011;43640;47.550;7.590;2022-09-29T07:12:41;6.88;;;4.18;;
57810;SDS011;43640;47.550;7.590;2022-09-29T07:14:47;6.75;;;5.38;;
57810;SDS011;43640;47.550;7.590;2022-09-29T07:16:48;7.60;;;5.70;;
57810;SDS011;43640;47.550;7.590;2022-09-29T07:18:50;7.78;;;6.10;;
57810;SDS011;43640;47.550;7.590;2022-09-29T07:20:52;7.50;;;6.47;;
57810;SDS011;43640;47.550;7.590;2022-09-29T07:22:56;9.23;;;6.10;;
57810;SDS011;43640;47.550;7.590;2022-09-29T07:24:57;7.68;;;5.82;;
57810;SDS011;43640;47.550;7.590;2022-09-29T07:26:59;8.60;;;6.30;;
57810;SDS011;43640;47.550;7.590;2022-09-29T07:29:00;8.52;;;6.50;;
57810;SDS011;43640;47.550;7.590;2022-09-29T07:31:06;6.82;;;6.10;;
57810;SDS011;43640;47.550;7.590;2022-09-29T07:33:15;11.77;;;6.97;;
57810;SDS011;43640;47.550;7.590;2022-09-29T07:35:17;9.15;;;6.05;;
57810;SDS011;43640;47.550;7.590;2022-09-29T07:37:19;6.88;;;5.68;;
57810;SDS011;43640;47.550;7.590;2022-09-29T07:39:20;9.10;;;5.85;;
57810;SDS011;43640;47.550;7.590;2022-09-29T07:41:22;6.65;;;5.03;;
57810;SDS011;43640;47.550;7.590;2022-09-29T07:43:24;8.00;;;5.38;;
57810;SDS011;43640;47.550;7.590;2022-09-29T07:45:25;6.38;;;4.93;;
57810;SDS011;43640;47.550;7.590;2022-09-29T07:47:26;9.20;;;6.97;;
57810;SDS011;43640;47.550;7.590;2022-09-29T07:49:28;7.32;;;5.10;;
57810;SDS011;43640;47.550;7.590;2022-09-29T07:51:29;7.10;;;5.30;;
57810;SDS011;43640;47.550;7.590;2022-09-29T07:53:31;7.50;;;5.85;;
57810;SDS011;43640;47.550;7.590;2022-09-29T07:55:32;6.22;;;5.63;;
57810;SDS011;43640;47.550;7.590;2022-09-29T07:57:34;7.80;;;5.28;;
57810;SDS011;43640;47.550;7.590;2022-09-29T07:59:35;7.03;;;5.57;;
57810;SDS011;43640;47.550;7.590;2022-09-29T08:01:39;7.22;;;6.00;;
57810;SDS011;43640;47.550;7.590;2022-09-29T08:03:42;6.40;;;5.53;;
57810;SDS011;43640;47.550;7.590;2022-09-29T08:05:43;6.60;;;5.75;;
57810;SDS011;43640;47.550;7.590;2022-09-29T08:07:49;6.75;;;5.10;;
57810;SDS011;43640;47.550;7.590;2022-09-29T08:09:50;5.78;;;4.90;;
57810;SDS011;43640;47.550;7.590;2022-09-29T08:11:52;6.93;;;4.90;;
57810;SDS011;43640;47.550;7.590;2022-09-29T08:14:06;6.82;;;4.65;;
57810;SDS011;43640;47.550;7.590;2022-09-29T08:16:10;6.55;;;4.88;;
57810;SDS011;43640;47.550;7.590;2022-09-29T08:18:12;8.35;;;5.68;;
57810;SDS011;43640;47.550;7.590;2022-09-29T08:20:13;5.93;;;5.13;;
57810;SDS011;43640;47.550;7.590;2022-09-29T08:22:15;17.15;;;12.65;;
57810;SDS011;43640;47.550;7.590;2022-09-29T08:24:16;7.88;;;6.40;;
57810;SDS011;43640;47.550;7.590;2022-09-29T08:26:19;6.63;;;5.63;;
57810;SDS011;43640;47.550;7.590;2022-09-29T08:28:37;7.82;;;6.07;;
57810;SDS011;43640;47.550;7.590;2022-09-29T08:30:39;10.25;;;6.05;;
57810;SDS011;43640;47.550;7.590;2022-09-29T08:32:40;8.77;;;6.70;;
57810;SDS011;43640;47.550;7.590;2022-09-29T08:34:42;7.55;;;5.97;;
57810;SDS011;43640;47.550;7.590;2022-09-29T08:36:43;6.57;;;5.13;;
57810;SDS011;43640;47.550;7.590;2022-09-29T08:38:45;6.68;;;5.10;;
57810;SDS011;43640;47.550;7.590;2022-09-29T08:40:47;5.93;;;5.32;;
57810;SDS011;43640;47.550;7.590;2022-09-29T08:45:04;6.53;;;4.93;;
57810;SDS011;43640;47.550;7.590;2022-09-29T08:49:20;6.32;;;4.82;;
57810;SDS011;43640;47.550;7.590;2022-09-29T08:51:36;6.32;;;3.92;;
57810;SDS011;43640;47.550;7.590;2022-09-29T08:53:43;5.03;;;3.83;;
57810;SDS011;43640;47.550;7.590;2022-09-29T08:56:19;5.63;;;4.13;;
57810;SDS011;43640;47.550;7.590;2022-09-29T08:58:21;4.72;;;3.90;;
57810;SDS011;43640;47.550;7.590;2022-09-29T09:00:24;5.03;;;3.72;;
57810;SDS011;43640;47.550;7.590;2022-09-29T09:04:39;5.32;;;3.88;;
57810;SDS011;43640;47.550;7.590;2022-09-29T09:17:12;4.55;;;2.70;;
57810;SDS011;43640;47.550;7.590;2022-09-29T09:21:40;3.47;;;3.17;;
57810;SDS011;43640;47.550;7.590;2022-09-29T09:25:53;6.78;;;3.63;;
57810;SDS011;43640;47.550;7.590;2022-09-29T09:30:01;3.80;;;2.78;;
57810;SDS011;43640;47.550;7.590;2022-09-29T09:32:05;4.60;;;2.70;;
57810;SDS011;43640;47.550;7.590;2022-09-29T09:34:20;2.97;;;2.70;;
57810;SDS011;43640;47.550;7.590;2022-09-29T09:36:53;5.63;;;4.40;;
57810;SDS011;43640;47.550;7.590;2022-09-29T09:39:12;7.43;;;4.80;;
57810;SDS011;43640;47.550;7.590;2022-09-29T09:41:16;3.88;;;3.47;;
57810;SDS011;43640;47.550;7.590;2022-09-29T09:43:21;4.78;;;3.83;;
57810;SDS011;43640;47.550;7.590;2022-09-29T09:45:38;5.40;;;4.55;;
57810;SDS011;43640;47.550;7.590;2022-09-29T09:47:49;7.03;;;5.03;;
57810;SDS011;43640;47.550;7.590;2022-09-29T09:50:15;6.30;;;5.53;;
57810;SDS011;43640;47.550;7.590;2022-09-29T09:52:21;4.75;;;3.35;;
57810;SDS011;43640;47.550;7.590;2022-09-29T09:58:41;5.90;;;3.17;;
57810;SDS011;43640;47.550;7.590;2022-09-29T10:00:59;4.47;;;2.40;;
57810;SDS011;43640;47.550;7.590;2022-09-29T10:03:03;3.20;;;2.53;;
57810;SDS011;43640;47.550;7.590;2022-09-29T10:05:08;4.20;;;3.20;;
57810;SDS011;43640;47.550;7.590;2022-09-29T10:07:11;4.82;;;4.32;;
57810;SDS011;43640;47.550;7.590;2022-09-29T10:09:12;4.28;;;2.63;;
57810;SDS011;43640;47.550;7.590;2022-09-29T10:13:16;3.97;;;2.30;;
57810;SDS011;43640;47.550;7.590;2022-09-29T10:15:21;4.43;;;2.25;;
57810;SDS011;43640;47.550;7.590;2022-09-29T10:17:26;3.30;;;1.77;;
57810;SDS011;43640;47.550;7.590;2022-09-29T10:21:47;3.20;;;1.70;;
57810;SDS011;43640;47.550;7.590;2022-09-29T10:23:53;4.45;;;2.08;;
57810;SDS011;43640;47.550;7.590;2022-09-29T10:27:59;1.45;;;1.30;;
57810;SDS011;43640;47.550;7.590;2022-09-29T10:30:03;1.50;;;1.27;;
57810;SDS011;43640;47.550;7.590;2022-09-29T10:36:13;3.08;;;1.30;;
57810;SDS011;43640;47.550;7.590;2022-09-29T10:38:15;3.70;;;1.80;;
57810;SDS011;43640;47.550;7.590;2022-09-29T10:40:18;3.80;;;2.20;;
57810;SDS011;43640;47.550;7.590;2022-09-29T10:42:25;2.15;;;1.80;;
57810;SDS011;43640;47.550;7.590;2022-09-29T10:44:29;8.15;;;3.70;;
57810;SDS011;43640;47.550;7.590;2022-09-29T10:47:04;3.40;;;2.33;;
57810;SDS011;43640;47.550;7.590;2022-09-29T10:49:14;3.35;;;1.73;;
57810;SDS011;43640;47.550;7.590;2022-09-29T10:51:18;3.15;;;2.40;;
57810;SDS011;43640;47.550;7.590;2022-09-29T10:53:23;5.10;;;2.80;;
57810;SDS011;43640;47.550;7.590;2022-09-29T10:55:28;5.13;;;3.05;;
57810;SDS011;43640;47.550;7.590;2022-09-29T10:57:31;5.40;;;3.78;;
57810;SDS011;43640;47.550;7.590;2022-09-29T10:59:32;4.15;;;3.10;;
57810;SDS011;43640;47.550;7.590;2022-09-29T11:01:34;5.35;;;4.00;;
57810;SDS011;43640;47.550;7.590;2022-09-29T11:03:49;4.00;;;3.00;;
57810;SDS011;43640;47.550;7.590;2022-09-29T11:07:55;4.30;;;3.28;;
57810;SDS011;43640;47.550;7.590;2022-09-29T11:09:57;6.82;;;3.20;;
57810;SDS011;43640;47.550;7.590;2022-09-29T11:11:58;5.13;;;3.40;;
57810;SDS011;43640;47.550;7.590;2022-09-29T11:14:22;5.25;;;2.72;;
57810;SDS011;43640;47.550;7.590;2022-09-29T11:16:25;3.95;;;3.10;;
57810;SDS011;43640;47.550;7.590;2022-09-29T11:18:31;3.55;;;2.80;;
57810;SDS011;43640;47.550;7.590;2022-09-29T11:20:34;5.65;;;2.80;;
57810;SDS011;43640;47.550;7.590;2022-09-29T11:29:03;2.83;;;2.40;;
57810;SDS011;43640;47.550;7.590;2022-09-29T11:33:44;3.25;;;2.40;;
57810;SDS011;43640;47.550;7.590;2022-09-29T11:40:23;4.10;;;2.30;;
57810;SDS011;43640;47.550;7.590;2022-09-29T11:47:03;1.40;;;1.23;;
57810;SDS011;43640;47.550;7.590;2022-09-29T11:51:23;1.20;;;1.10;;
57810;SDS011;43640;47.550;7.590;2022-09-29T11:57:51;1.27;;;0.75;;
57810;SDS011;43640;47.550;7.590;2022-09-29T11:59:58;1.55;;;0.70;;
57810;SDS011;43640;47.550;7.590;2022-09-29T12:04:33;2.83;;;1.30;;
57810;SDS011;43640;47.550;7.590;2022-09-29T12:19:16;1.92;;;1.70;;
57810;SDS011;43640;47.550;7.590;2022-09-29T12:21:31;3.05;;;1.75;;
57810;SDS011;43640;47.550;7.590;2022-09-29T12:23:33;2.90;;;1.90;;
57810;SDS011;43640;47.550;7.590;2022-09-29T12:25:39;3.47;;;1.60;;
57810;SDS011;43640;47.550;7.590;2022-09-29T12:27:41;1.60;;;1.10;;
57810;SDS011;43640;47.550;7.590;2022-09-29T12:29:49;1.85;;;1.20;;
57810;SDS011;43640;47.550;7.590;2022-09-29T12:31:52;1.25;;;1.15;;
57810;SDS011;43640;47.550;7.590;2022-09-29T12:33:57;2.03;;;1.50;;
57810;SDS011;43640;47.550;7.590;2022-09-29T12:40:14;1.95;;;1.67;;
57810;SDS011;43640;47.550;7.590;2022-09-29T12:44:24;1.60;;;1.10;;
57810;SDS011;43640;47.550;7.590;2022-09-29T12:48:34;2.03;;;1.77;;
57810;SDS011;43640;47.550;7.590;2022-09-29T12:52:46;1.80;;;1.70;;
57810;SDS011;43640;47.550;7.590;2022-09-29T12:54:50;2.78;;;1.90;;
57810;SDS011;43640;47.550;7.590;2022-09-29T12:56:54;4.88;;;2.33;;
57810;SDS011;43640;47.550;7.590;2022-09-29T12:59:02;3.17;;;1.90;;
57810;SDS011;43640;47.550;7.590;2022-09-29T13:01:19;2.92;;;2.00;;
57810;SDS011;43640;47.550;7.590;2022-09-29T13:03:26;2.20;;;2.00;;
57810;SDS011;43640;47.550;7.590;2022-09-29T13:07:41;1.65;;;1.40;;
57810;SDS011;43640;47.550;7.590;2022-09-29T13:10:01;2.08;;;1.35;;
57810;SDS011;43640;47.550;7.590;2022-09-29T13:14:20;1.20;;;1.10;;
57810;SDS011;43640;47.550;7.590;2022-09-29T13:27:42;4.03;;;1.80;;
57810;SDS011;43640;47.550;7.590;2022-09-29T13:29:49;2.67;;;1.60;;
57810;SDS011;43640;47.550;7.590;2022-09-29T13:31:53;3.28;;;2.28;;
57810;SDS011;43640;47.550;7.590;2022-09-29T13:33:56;2.38;;;1.88;;
57810;SDS011;43640;47.550;7.590;2022-09-29T13:36:01;2.55;;;1.85;;
57810;SDS011;43640;47.550;7.590;2022-09-29T13:38:03;1.60;;;1.50;;
57810;SDS011;43640;47.550;7.590;2022-09-29T13:40:06;1.98;;;1.50;;
57810;SDS011;43640;47.550;7.590;2022-09-29T13:42:25;1.95;;;1.42;;
57810;SDS011;43640;47.550;7.590;2022-09-29T13:44:27;1.90;;;1.70;;
57810;SDS011;43640;47.550;7.590;2022-09-29T13:50:42;1.95;;;1.40;;
57810;SDS011;43640;47.550;7.590;2022-09-29T13:52:44;2.72;;;1.77;;
57810;SDS011;43640;47.550;7.590;2022-09-29T13:54:48;2.03;;;1.73;;
57810;SDS011;43640;47.550;7.590;2022-09-29T14:00:53;1.92;;;1.25;;
57810;SDS011;43640;47.550;7.590;2022-09-29T14:03:02;2.35;;;1.50;;
57810;SDS011;43640;47.550;7.590;2022-09-29T14:05:05;1.80;;;1.52;;
57810;SDS011;43640;47.550;7.590;2022-09-29T14:07:06;3.00;;;1.45;;
57810;SDS011;43640;47.550;7.590;2022-09-29T14:09:12;2.15;;;1.40;;
57810;SDS011;43640;47.550;7.590;2022-09-29T14:15:41;1.33;;;1.10;;
57810;SDS011;43640;47.550;7.590;2022-09-29T14:17:45;2.60;;;2.00;;
57810;SDS011;43640;47.550;7.590;2022-09-29T14:21:58;4.43;;;3.60;;
57810;SDS011;43640;47.550;7.590;2022-09-29T14:24:00;3.65;;;1.80;;
57810;SDS011;43640;47.550;7.590;2022-09-29T14:26:01;2.95;;;1.45;;
57810;SDS011;43640;47.550;7.590;2022-09-29T14:28:06;4.28;;;3.05;;
57810;SDS011;43640;47.550;7.590;2022-09-29T14:32:27;2.05;;;1.60;;
57810;SDS011;43640;47.550;7.590;2022-09-29T14:34:34;2.90;;;1.48;;
57810;SDS011;43640;47.550;7.590;2022-09-29T14:36:36;3.47;;;2.00;;
57810;SDS011;43640;47.550;7.590;2022-09-29T14:40:55;5.13;;;1.98;;
57810;SDS011;43640;47.550;7.590;2022-09-29T14:43:16;4.57;;;3.30;;
57810;SDS011;43640;47.550;7.590;2022-09-29T14:45:17;1.70;;;1.60;;
57810;SDS011;43640;47.550;7.590;2022-09-29T15:01:03;2.65;;;1.30;;
57810;SDS011;43640;47.550;7.590;2022-09-29T15:03:10;1.95;;;1.17;;
57810;SDS011;43640;47.550;7.590;2022-09-29T15:05:29;1.65;;;1.20;;
57810;SDS011;43640;47.550;7.590;2022-09-29T15:07:31;2.88;;;1.27;;
57810;SDS011;43640;47.550;7.590;2022-09-29T15:09:45;2.83;;;1.52;;
57810;SDS011;43640;47.550;7.590;2022-09-29T15:13:50;2.33;;;1.55;;
57810;SDS011;43640;47.550;7.590;2022-09-29T15:15:54;4.90;;;3.60;;
57810;SDS011;43640;47.550;7.590;2022-09-29T15:17:59;6.03;;;4.22;;
57810;SDS011;43640;47.550;7.590;2022-09-29T15:24:27;2.70;;;1.50;;